createdAt,value
2022-11-15T00:02:24.252Z,8.00
2022-11-15T00:04:50.859Z,8.00
2022-11-15T00:07:40.441Z,8.00
2022-11-15T00:10:04.411Z,7.90
2022-11-15T00:12:30.933Z,7.80
2022-11-15T00:14:57.436Z,7.90
2022-11-15T00:17:23.943Z,7.80
2022-11-15T00:19:50.570Z,7.80
2022-11-15T00:22:17.163Z,7.80
2022-11-15T00:24:43.702Z,7.80
2022-11-15T00:27:10.306Z,7.80
2022-11-15T00:29:39.412Z,7.70
2022-11-15T00:32:06.293Z,7.70
2022-11-15T00:34:32.831Z,7.70
2022-11-15T00:36:59.360Z,7.60
2022-11-15T00:39:25.888Z,7.60
2022-11-15T00:41:52.382Z,7.60
2022-11-15T00:44:18.934Z,7.60
2022-11-15T00:46:45.519Z,7.50
2022-11-15T00:49:12.137Z,7.60
2022-11-15T00:51:38.673Z,7.50
2022-11-15T00:54:05.288Z,7.50
2022-11-15T00:56:31.822Z,7.50
2022-11-15T00:58:58.338Z,7.50
2022-11-15T01:01:25.016Z,7.50
2022-11-15T01:03:51.668Z,7.50
2022-11-15T01:06:18.246Z,7.50
2022-11-15T01:08:44.768Z,7.40
2022-11-15T01:11:12.611Z,7.50
2022-11-15T01:13:39.822Z,7.50
2022-11-15T01:16:09.167Z,7.40
2022-11-15T01:18:35.735Z,7.40
2022-11-15T01:21:05.594Z,7.40
2022-11-15T01:23:32.438Z,7.40
2022-11-15T01:25:59.772Z,7.30
2022-11-15T01:28:26.346Z,7.40
2022-11-15T01:30:52.923Z,7.40
2022-11-15T01:33:19.552Z,7.40
2022-11-15T01:35:46.066Z,7.40
2022-11-15T01:38:12.715Z,7.30
2022-11-15T01:40:39.238Z,7.30
2022-11-15T01:43:24.814Z,7.30
2022-11-15T01:46:14.323Z,7.30
2022-11-15T01:48:40.905Z,7.20
2022-11-15T01:51:08.966Z,7.10
2022-11-15T01:53:38.211Z,7.20
2022-11-15T01:56:06.036Z,7.10
2022-11-15T01:58:32.846Z,7.10
2022-11-15T02:00:59.755Z,7.10
2022-11-15T02:03:31.001Z,7.10
2022-11-15T02:05:58.592Z,7.10
2022-11-15T02:08:25.224Z,7.10
2022-11-15T02:10:51.746Z,7.00
2022-11-15T02:13:18.634Z,7.00
2022-11-15T02:16:05.498Z,7.10
2022-11-15T02:18:38.049Z,7.00
2022-11-15T02:21:04.541Z,7.00
2022-11-15T02:23:49.616Z,7.00
2022-11-15T02:26:39.450Z,7.00
2022-11-15T02:29:11.287Z,7.00
2022-11-15T02:31:55.894Z,6.90
2022-11-15T02:34:29.321Z,6.90
2022-11-15T02:37:03.788Z,6.90
2022-11-15T02:39:33.055Z,6.90
2022-11-15T02:42:04.855Z,6.90
2022-11-15T02:44:44.458Z,6.90
2022-11-15T02:47:15.684Z,6.90
2022-11-15T02:49:44.660Z,6.90
2022-11-15T02:52:15.436Z,6.90
2022-11-15T02:54:41.967Z,6.90
2022-11-15T02:57:13.199Z,6.80
2022-11-15T02:59:57.547Z,6.70
2022-11-15T03:02:36.580Z,6.60
2022-11-15T03:05:15.182Z,6.60
2022-11-15T03:07:46.910Z,6.60
2022-11-15T03:10:18.901Z,6.50
2022-11-15T03:12:52.562Z,6.50
2022-11-15T03:15:24.742Z,6.50
2022-11-15T03:17:57.110Z,6.50
2022-11-15T03:20:24.867Z,6.40
2022-11-15T03:22:52.052Z,6.50
2022-11-15T03:25:20.762Z,6.40
2022-11-15T03:27:49.427Z,6.40
2022-11-15T03:30:16.727Z,6.40
2022-11-15T03:32:46.938Z,6.40
2022-11-15T03:35:15.045Z,6.40
2022-11-15T03:37:43.834Z,6.30
2022-11-15T03:40:10.859Z,6.20
2022-11-15T03:42:45.980Z,6.10
2022-11-15T03:45:20.304Z,6.10
2022-11-15T03:47:49.237Z,6.00
2022-11-15T03:50:17.879Z,6.00
2022-11-15T03:52:46.250Z,6.00
2022-11-15T03:55:14.322Z,5.90
2022-11-15T03:57:40.875Z,5.80
2022-11-15T04:00:08.126Z,5.80
2022-11-15T04:02:34.687Z,5.90
2022-11-15T04:05:01.232Z,5.90
2022-11-15T04:07:27.835Z,5.90
2022-11-15T04:10:03.922Z,5.90
2022-11-15T04:12:33.991Z,5.80
2022-11-15T04:15:08.248Z,5.80
2022-11-15T04:17:37.542Z,5.70
2022-11-15T04:20:23.494Z,5.70
2022-11-15T04:23:11.589Z,5.60
2022-11-15T04:25:38.152Z,5.50
2022-11-15T04:28:04.741Z,5.50
2022-11-15T04:30:31.350Z,5.40
2022-11-15T04:32:57.914Z,5.40
2022-11-15T04:35:24.497Z,5.40
2022-11-15T04:37:51.065Z,5.40
2022-11-15T04:40:17.608Z,5.40
2022-11-15T04:42:44.304Z,5.30
2022-11-15T04:45:10.904Z,5.30
2022-11-15T04:47:37.511Z,5.20
2022-11-15T04:50:04.261Z,5.30
2022-11-15T04:52:30.802Z,5.40
2022-11-15T04:54:57.343Z,5.40
2022-11-15T04:57:23.871Z,5.50
2022-11-15T04:59:50.407Z,5.50
2022-11-15T05:02:16.932Z,5.50
2022-11-15T05:04:43.439Z,5.50
2022-11-15T05:07:10.051Z,5.50
2022-11-15T05:09:36.610Z,5.50
2022-11-15T05:12:03.224Z,5.50
2022-11-15T05:14:30.219Z,5.60
2022-11-15T05:16:56.822Z,5.60
2022-11-15T05:19:23.747Z,5.60
2022-11-15T05:21:50.361Z,5.60
2022-11-15T05:24:16.942Z,5.60
2022-11-15T05:26:43.444Z,5.60
2022-11-15T05:29:10.254Z,5.70
2022-11-15T05:31:40.145Z,5.60
2022-11-15T05:34:07.014Z,5.60
2022-11-15T05:36:41.971Z,5.50
2022-11-15T05:39:09.453Z,5.50
2022-11-15T05:41:56.965Z,5.60
2022-11-15T05:44:23.962Z,5.50
2022-11-15T05:46:51.553Z,5.40
2022-11-15T05:49:20.290Z,5.40
2022-11-15T05:51:48.149Z,5.80
2022-11-15T05:54:15.213Z,5.70
2022-11-15T05:56:41.951Z,5.60
2022-11-15T05:59:09.082Z,5.50
2022-11-15T06:01:35.694Z,5.50
2022-11-15T06:04:02.233Z,5.50
2022-11-15T06:06:29.419Z,5.50
2022-11-15T06:08:55.989Z,5.40
2022-11-15T06:11:22.529Z,5.30
2022-11-15T06:13:49.176Z,5.40
2022-11-15T06:16:15.743Z,5.30
2022-11-15T06:18:42.381Z,5.40
2022-11-15T06:21:08.941Z,5.30
2022-11-15T06:23:35.827Z,5.20
2022-11-15T06:26:03.700Z,5.20
2022-11-15T06:28:33.341Z,5.20
2022-11-15T06:31:03.859Z,5.20
2022-11-15T06:33:30.737Z,5.30
2022-11-15T06:36:00.680Z,5.30
2022-11-15T06:38:27.457Z,5.30
2022-11-15T06:40:53.999Z,5.30
2022-11-15T06:43:20.596Z,5.40
2022-11-15T06:45:47.143Z,5.30
2022-11-15T06:48:14.832Z,5.30
2022-11-15T06:50:41.358Z,5.30
2022-11-15T06:53:07.893Z,5.30
2022-11-15T06:55:34.477Z,5.30
2022-11-15T06:58:01.075Z,5.30
2022-11-15T07:00:27.595Z,5.30
2022-11-15T07:02:54.166Z,5.30
2022-11-15T07:05:20.725Z,5.40
2022-11-15T07:07:52.094Z,5.40
2022-11-15T07:10:18.619Z,5.50
2022-11-15T07:12:47.862Z,5.60
2022-11-15T07:15:14.474Z,5.80
2022-11-15T07:17:41.000Z,5.70
2022-11-15T07:20:07.959Z,5.90
2022-11-15T07:22:34.473Z,5.90
2022-11-15T07:25:00.980Z,6.00
2022-11-15T07:27:27.907Z,6.10
2022-11-15T07:29:54.488Z,6.10
2022-11-15T07:32:21.078Z,6.20
2022-11-15T07:34:47.646Z,6.30
2022-11-15T07:37:14.185Z,6.40
2022-11-15T07:39:40.734Z,6.60
2022-11-15T07:42:26.104Z,6.80
2022-11-15T07:44:52.672Z,7.00
2022-11-15T07:47:19.786Z,7.30
2022-11-15T07:49:47.039Z,7.70
2022-11-15T07:52:13.885Z,7.90
2022-11-15T07:54:40.681Z,8.30
2022-11-15T07:57:08.168Z,8.70
2022-11-15T07:59:35.875Z,9.20
2022-11-15T08:02:02.813Z,9.60
2022-11-15T08:04:29.448Z,10.00
2022-11-15T08:06:56.370Z,10.50
2022-11-15T08:09:22.956Z,11.10
2022-11-15T08:11:49.524Z,11.50
2022-11-15T08:14:16.062Z,12.10
2022-11-15T08:16:42.589Z,12.40
2022-11-15T08:19:09.172Z,13.10
2022-11-15T08:21:36.126Z,13.70
2022-11-15T08:24:02.737Z,14.10
2022-11-15T08:26:31.084Z,14.40
2022-11-15T08:28:57.628Z,14.70
2022-11-15T08:31:24.187Z,14.90
2022-11-15T08:33:50.775Z,15.30
2022-11-15T08:36:17.816Z,15.80
2022-11-15T08:38:44.369Z,16.00
2022-11-15T08:41:13.308Z,16.30
2022-11-15T08:43:39.803Z,16.40
2022-11-15T08:46:06.338Z,16.60
2022-11-15T08:48:33.206Z,16.80
2022-11-15T08:50:59.911Z,17.00
2022-11-15T08:53:26.645Z,17.20
2022-11-15T08:55:53.276Z,17.40
2022-11-15T08:58:19.780Z,17.70
2022-11-15T09:00:46.308Z,17.80
2022-11-15T09:03:12.845Z,18.20
2022-11-15T09:05:39.461Z,18.80
2022-11-15T09:08:19.050Z,19.30
2022-11-15T09:10:52.738Z,20.10
2022-11-15T09:13:19.246Z,20.20
2022-11-15T09:15:46.052Z,21.20
2022-11-15T09:18:12.559Z,22.20
2022-11-15T09:20:39.155Z,22.70
2022-11-15T09:23:05.863Z,22.90
2022-11-15T09:25:32.908Z,23.10
2022-11-15T09:27:59.446Z,22.90
2022-11-15T09:30:26.313Z,23.20
2022-11-15T09:32:52.868Z,23.50
2022-11-15T09:35:19.383Z,23.50
2022-11-15T09:37:46.555Z,23.70
2022-11-15T09:40:17.262Z,23.70
2022-11-15T09:42:49.662Z,23.30
2022-11-15T09:45:16.159Z,23.50
2022-11-15T09:47:50.737Z,23.80
2022-11-15T09:50:20.916Z,24.10
2022-11-15T09:52:47.432Z,23.90
2022-11-15T09:55:22.104Z,24.60
2022-11-15T09:57:53.244Z,24.50
2022-11-15T10:00:45.508Z,24.20
2022-11-15T10:03:13.169Z,24.40
2022-11-15T10:05:44.347Z,24.30
2022-11-15T10:08:26.245Z,24.80
2022-11-15T10:11:15.849Z,25.40
2022-11-15T10:13:42.651Z,25.40
2022-11-15T10:16:27.763Z,25.90
2022-11-15T10:18:54.405Z,26.40
2022-11-15T10:21:31.513Z,26.70
2022-11-15T10:23:59.109Z,26.50
2022-11-15T10:26:25.823Z,26.70
2022-11-15T10:28:52.357Z,26.80
2022-11-15T10:31:26.757Z,26.50
2022-11-15T10:34:00.280Z,26.40
2022-11-15T10:36:26.854Z,26.20
2022-11-15T10:38:55.390Z,26.20
2022-11-15T10:41:23.141Z,26.30
2022-11-15T10:44:08.101Z,26.60
2022-11-15T10:46:50.878Z,26.20
2022-11-15T10:49:18.896Z,26.80
2022-11-15T10:51:49.393Z,27.10
2022-11-15T10:54:21.236Z,26.80
2022-11-15T10:56:50.892Z,26.80
2022-11-15T10:59:24.045Z,26.40
2022-11-15T11:01:50.755Z,26.20
2022-11-15T11:04:17.356Z,26.70
2022-11-15T11:07:02.141Z,26.70
2022-11-15T11:09:33.631Z,26.20
2022-11-15T11:12:00.895Z,26.10
2022-11-15T11:14:34.853Z,25.80
2022-11-15T11:17:07.416Z,25.00
2022-11-15T11:19:34.232Z,24.90
2022-11-15T11:22:04.865Z,24.70
2022-11-15T11:24:43.640Z,24.40
2022-11-15T11:27:19.800Z,24.20
2022-11-15T11:29:52.815Z,24.50
2022-11-15T11:32:25.159Z,25.00
2022-11-15T11:34:54.794Z,25.10
2022-11-15T11:37:27.476Z,25.70
2022-11-15T11:40:12.853Z,25.80
2022-11-15T11:42:42.504Z,26.10
2022-11-15T11:45:24.746Z,26.20
2022-11-15T11:47:55.364Z,26.20
2022-11-15T11:50:24.444Z,26.10
2022-11-15T11:53:04.558Z,26.00
2022-11-15T11:55:39.502Z,25.80
2022-11-15T11:58:29.331Z,26.00
2022-11-15T12:00:56.095Z,26.00
2022-11-15T12:03:29.578Z,26.20
2022-11-15T12:05:58.639Z,26.10
2022-11-15T12:08:30.090Z,25.90
2022-11-15T12:11:15.734Z,25.90
2022-11-15T12:13:43.398Z,26.10
2022-11-15T12:16:14.896Z,26.30
2022-11-15T12:18:45.528Z,25.80
2022-11-15T12:21:17.982Z,25.40
2022-11-15T12:23:47.319Z,24.80
2022-11-15T12:26:29.057Z,23.70
2022-11-15T12:29:07.380Z,23.40
2022-11-15T12:31:34.246Z,23.00
2022-11-15T12:34:07.094Z,22.60
2022-11-15T12:36:36.907Z,22.80
2022-11-15T12:39:10.590Z,22.90
2022-11-15T12:41:39.964Z,22.70
2022-11-15T12:44:11.443Z,22.60
2022-11-15T12:46:40.934Z,21.90
2022-11-15T12:49:12.570Z,21.50
2022-11-15T12:51:59.059Z,21.00
2022-11-15T12:54:25.604Z,21.00
2022-11-15T12:57:04.351Z,20.60
2022-11-15T12:59:49.798Z,20.40
2022-11-15T13:02:24.812Z,20.10
2022-11-15T13:04:51.849Z,20.00
2022-11-15T13:07:36.513Z,19.60
2022-11-15T13:10:27.746Z,19.30
2022-11-15T13:12:56.754Z,18.90
2022-11-15T13:15:38.245Z,18.80
2022-11-15T13:18:27.100Z,18.40
2022-11-15T13:20:57.997Z,18.30
2022-11-15T13:23:27.606Z,18.20
2022-11-15T13:26:09.241Z,18.10
2022-11-15T13:28:42.024Z,18.10
2022-11-15T13:31:14.507Z,18.10
2022-11-15T13:33:41.095Z,18.00
2022-11-15T13:36:10.027Z,17.90
2022-11-15T13:38:37.950Z,17.90
2022-11-15T13:41:21.649Z,17.90
2022-11-15T13:43:49.485Z,18.00
2022-11-15T13:46:19.162Z,17.90
2022-11-15T13:48:46.817Z,17.90
2022-11-15T13:51:20.276Z,17.80
2022-11-15T13:53:48.685Z,17.80
2022-11-15T13:56:17.038Z,17.90
2022-11-15T13:58:43.703Z,17.90
2022-11-15T14:01:15.247Z,17.90
2022-11-15T14:03:47.798Z,17.90
2022-11-15T14:06:18.960Z,17.90
2022-11-15T14:09:02.842Z,17.80
2022-11-15T14:11:29.503Z,17.90
2022-11-15T14:14:08.192Z,17.90
2022-11-15T14:16:36.703Z,17.80
2022-11-15T14:19:04.034Z,17.60
2022-11-15T14:21:31.016Z,17.50
2022-11-15T14:24:20.315Z,17.40
2022-11-15T14:26:46.893Z,17.30
2022-11-15T14:29:31.714Z,17.20
2022-11-15T14:32:13.489Z,17.10
2022-11-15T14:34:40.010Z,16.90
2022-11-15T14:37:11.006Z,16.90
2022-11-15T14:39:37.602Z,16.70
2022-11-15T14:42:04.530Z,16.60
2022-11-15T14:44:31.102Z,16.40
2022-11-15T14:46:57.637Z,16.30
2022-11-15T14:49:24.197Z,16.20
2022-11-15T14:51:50.896Z,16.00
2022-11-15T14:54:17.430Z,15.90
2022-11-15T14:56:44.004Z,15.80
2022-11-15T14:59:10.522Z,15.70
2022-11-15T15:01:37.026Z,15.60
2022-11-15T15:04:03.820Z,15.60
2022-11-15T15:06:31.556Z,15.50
2022-11-15T15:08:58.191Z,15.40
2022-11-15T15:11:26.940Z,15.30
2022-11-15T15:13:53.781Z,15.20
2022-11-15T15:16:20.442Z,15.00
2022-11-15T15:18:46.944Z,14.90
2022-11-15T15:21:21.996Z,14.80
2022-11-15T15:23:48.546Z,14.70
2022-11-15T15:26:15.350Z,14.40
2022-11-15T15:28:42.169Z,14.20
2022-11-15T15:31:09.292Z,14.10
2022-11-15T15:33:35.816Z,13.90
2022-11-15T15:36:02.870Z,13.80
2022-11-15T15:38:29.737Z,13.70
2022-11-15T15:40:56.559Z,13.40
2022-11-15T15:43:23.069Z,13.30
2022-11-15T15:45:49.617Z,13.20
2022-11-15T15:48:17.494Z,13.10
2022-11-15T15:50:44.273Z,13.00
2022-11-15T15:53:11.417Z,13.50
2022-11-15T15:55:38.463Z,13.20
2022-11-15T15:58:05.883Z,12.90
2022-11-15T16:00:34.640Z,12.70
2022-11-15T16:03:01.383Z,12.60
2022-11-15T16:05:28.166Z,12.50
2022-11-15T16:07:54.874Z,12.30
2022-11-15T16:10:28.685Z,12.30
2022-11-15T16:12:56.071Z,12.20
2022-11-15T16:15:23.592Z,12.10
2022-11-15T16:17:52.920Z,12.10
2022-11-15T16:20:25.141Z,11.90
2022-11-15T16:22:51.679Z,11.90
2022-11-15T16:25:18.243Z,11.80
2022-11-15T16:27:45.910Z,11.80
2022-11-15T16:30:16.488Z,11.80
2022-11-15T16:32:43.377Z,11.70
2022-11-15T16:35:16.235Z,11.70
2022-11-15T16:37:44.932Z,11.60
2022-11-15T16:40:18.525Z,11.50
2022-11-15T16:42:45.034Z,11.50
2022-11-15T16:45:14.761Z,11.40
2022-11-15T16:47:41.278Z,11.40
2022-11-15T16:50:18.307Z,11.30
2022-11-15T16:52:45.166Z,11.30
2022-11-15T16:55:11.722Z,11.30
2022-11-15T16:57:38.289Z,11.30
2022-11-15T17:00:05.425Z,11.20
2022-11-15T17:02:33.894Z,11.10
2022-11-15T17:05:03.319Z,11.20
2022-11-15T17:07:32.297Z,11.40
2022-11-15T17:09:58.889Z,11.10
2022-11-15T17:12:25.442Z,11.00
2022-11-15T17:14:51.993Z,11.10
2022-11-15T17:17:18.573Z,11.10
2022-11-15T17:19:45.065Z,11.10
2022-11-15T17:22:11.761Z,11.10
2022-11-15T17:24:38.279Z,11.10
2022-11-15T17:27:04.870Z,11.10
2022-11-15T17:29:31.472Z,11.20
2022-11-15T17:31:57.996Z,11.20
2022-11-15T17:34:24.487Z,11.20
2022-11-15T17:36:50.997Z,11.20
2022-11-15T17:39:19.501Z,11.20
2022-11-15T17:41:46.445Z,11.20
2022-11-15T17:44:13.002Z,11.20
2022-11-15T17:46:40.700Z,11.30
2022-11-15T17:49:07.371Z,11.30
2022-11-15T17:51:34.064Z,11.30
2022-11-15T17:54:00.621Z,11.30
2022-11-15T17:56:28.190Z,11.30
2022-11-15T17:58:55.515Z,11.30
2022-11-15T18:01:23.792Z,11.30
2022-11-15T18:03:50.858Z,11.30
2022-11-15T18:06:18.147Z,11.40
2022-11-15T18:08:46.093Z,11.40
2022-11-15T18:11:17.036Z,11.40
2022-11-15T18:13:49.435Z,11.40
2022-11-15T18:16:19.604Z,11.40
2022-11-15T18:18:46.463Z,11.50
2022-11-15T18:21:14.758Z,11.50
2022-11-15T18:23:42.110Z,11.50
2022-11-15T18:26:10.237Z,11.50
2022-11-15T18:28:38.286Z,11.40
2022-11-15T18:31:12.043Z,11.40
2022-11-15T18:33:38.881Z,11.40
2022-11-15T18:36:06.742Z,11.40
2022-11-15T18:38:33.758Z,11.40
2022-11-15T18:41:30.684Z,11.40
2022-11-15T18:44:00.493Z,11.40
2022-11-15T18:46:28.446Z,11.30
2022-11-15T18:48:55.383Z,11.30
2022-11-15T18:51:22.940Z,11.30
2022-11-15T18:53:52.126Z,11.40
2022-11-15T18:56:19.461Z,11.40
2022-11-15T18:58:50.302Z,11.40
2022-11-15T19:01:17.673Z,11.40
2022-11-15T19:03:45.220Z,11.30
2022-11-15T19:06:13.836Z,11.30
2022-11-15T19:08:41.097Z,11.20
2022-11-15T19:11:07.641Z,11.20
2022-11-15T19:13:34.828Z,11.10
2022-11-15T19:16:02.605Z,11.10
2022-11-15T19:18:29.615Z,11.10
2022-11-15T19:20:56.859Z,11.00
2022-11-15T19:23:24.096Z,11.00
2022-11-15T19:25:58.829Z,11.00
2022-11-15T19:28:25.990Z,11.00
2022-11-15T19:30:52.807Z,11.30
2022-11-15T19:33:22.590Z,10.80
2022-11-15T19:35:51.663Z,10.80
2022-11-15T19:38:18.162Z,10.80
2022-11-15T19:40:45.109Z,10.80
2022-11-15T19:43:12.928Z,10.80
2022-11-15T19:45:39.437Z,10.80
2022-11-15T19:48:06.170Z,10.80
2022-11-15T19:50:32.698Z,10.70
2022-11-15T19:52:59.290Z,10.70
2022-11-15T19:55:25.876Z,10.70
2022-11-15T19:57:52.419Z,10.70
2022-11-15T20:00:19.156Z,10.70
2022-11-15T20:02:45.655Z,10.60
2022-11-15T20:05:18.170Z,10.50
2022-11-15T20:07:47.483Z,10.50
2022-11-15T20:10:18.141Z,10.50
2022-11-15T20:12:47.208Z,10.50
2022-11-15T20:15:13.802Z,10.50
2022-11-15T20:17:40.295Z,10.60
2022-11-15T20:20:07.214Z,10.50
2022-11-15T20:22:33.811Z,10.50
2022-11-15T20:25:00.491Z,10.40
2022-11-15T20:27:27.080Z,10.40
2022-11-15T20:29:54.574Z,10.40
2022-11-15T20:32:21.135Z,10.40
2022-11-15T20:34:52.843Z,10.40
2022-11-15T20:37:20.551Z,10.40
2022-11-15T20:39:47.121Z,10.40
2022-11-15T20:42:13.699Z,10.40
2022-11-15T20:44:40.272Z,10.30
2022-11-15T20:47:07.006Z,10.30
2022-11-15T20:49:33.585Z,10.30
2022-11-15T20:52:00.165Z,10.30
2022-11-15T20:54:26.741Z,10.20
2022-11-15T20:56:53.327Z,10.20
2022-11-15T20:59:19.850Z,10.20
2022-11-15T21:01:48.000Z,10.20
2022-11-15T21:04:14.965Z,10.20
2022-11-15T21:06:46.028Z,10.20
2022-11-15T21:09:49.503Z,10.20
2022-11-15T21:12:16.254Z,10.20
2022-11-15T21:14:44.014Z,10.30
2022-11-15T21:17:10.571Z,10.30
2022-11-15T21:19:37.292Z,10.30
2022-11-15T21:22:04.452Z,10.20
2022-11-15T21:24:31.312Z,10.20
2022-11-15T21:26:57.901Z,10.20
2022-11-15T21:29:24.507Z,10.20
2022-11-15T21:31:51.683Z,10.20
2022-11-15T21:34:18.268Z,10.20
2022-11-15T21:36:45.321Z,10.10
2022-11-15T21:39:11.846Z,10.20
2022-11-15T21:41:38.488Z,10.10
2022-11-15T21:44:05.250Z,10.20
2022-11-15T21:46:31.913Z,10.10
2022-11-15T21:48:58.712Z,10.10
2022-11-15T21:51:25.307Z,10.00
2022-11-15T21:53:55.885Z,10.00
2022-11-15T21:56:22.710Z,10.00
2022-11-15T21:58:49.344Z,10.00
2022-11-15T22:01:34.493Z,10.00
2022-11-15T22:04:01.095Z,9.90
2022-11-15T22:06:27.728Z,9.90
2022-11-15T22:08:54.289Z,9.80
2022-11-15T22:11:20.925Z,9.60
2022-11-15T22:13:47.447Z,9.60
2022-11-15T22:16:13.988Z,9.60
2022-11-15T22:18:40.537Z,9.50
2022-11-15T22:21:11.399Z,9.40
2022-11-15T22:23:38.374Z,9.40
2022-11-15T22:26:05.530Z,9.30
2022-11-15T22:28:33.042Z,9.20
2022-11-15T22:31:00.498Z,9.10
2022-11-15T22:33:28.469Z,9.10
2022-11-15T22:35:55.354Z,8.90
2022-11-15T22:38:22.349Z,8.80
2022-11-15T22:40:49.251Z,8.70
2022-11-15T22:43:17.989Z,8.70
2022-11-15T22:45:51.641Z,8.60
2022-11-15T22:48:19.657Z,8.60
2022-11-15T22:50:46.273Z,8.50
2022-11-15T22:53:12.835Z,8.50
2022-11-15T22:55:39.776Z,8.50
2022-11-15T22:58:06.462Z,8.50
2022-11-15T23:00:32.974Z,8.50
2022-11-15T23:02:59.557Z,8.50
2022-11-15T23:05:26.219Z,8.50
2022-11-15T23:07:52.750Z,8.60
2022-11-15T23:10:37.982Z,8.50
2022-11-15T23:13:17.022Z,8.50
2022-11-15T23:16:03.286Z,8.50
2022-11-15T23:18:33.031Z,8.60
2022-11-15T23:20:59.819Z,8.60
2022-11-15T23:23:26.398Z,8.60
2022-11-15T23:25:58.965Z,8.50
2022-11-15T23:28:25.515Z,8.50
2022-11-15T23:31:10.739Z,8.60
2022-11-15T23:33:55.739Z,8.50
2022-11-15T23:36:22.260Z,8.40
2022-11-15T23:38:48.947Z,8.50
2022-11-15T23:41:15.516Z,8.30
2022-11-15T23:43:42.332Z,8.40
2022-11-15T23:46:08.944Z,8.40
2022-11-15T23:48:35.914Z,8.30
2022-11-15T23:51:02.496Z,8.20
2022-11-15T23:53:29.036Z,8.20
2022-11-15T23:56:06.573Z,8.20
2022-11-15T23:58:33.806Z,8.20
